Terminal Aerodrome Forecast
Issued by NWS

Home | Current Version | Previous Version | Text Only | Print | Product List | Glossary On
Versions: 1 2 3 4 5 6 7 8 9 10 11 12 13 14
000
FTUS41 KAKQ 241700
TAFPHF
TAF
KPHF 241740Z 2418/2518 22015G25KT P6SM SCT025 BKN035
     FM242200 21011KT P6SM SCT030 BKN080
     FM250400 21008KT P6SM SCT007 BKN080
     FM250900 26005KT P6SM SCT007 BKN080=

USA.gov is the U.S. government's official web portal to all federal, state and local government web resources and services.